Time;durP1;ratioP1;P1;durP2;ratioP2;P2;SDS_P1;SDS_P2;PMS_P1;PMS_P2;Temp;Humidity;BMP_temperature;BMP_pressure;BME280_temperature;BME280_humidity;BME280_pressure;Samples;Min_cycle;Max_cycle;Signal;HPM_P1;HPM_P2
2022/03/30 00:00:10;;;;;;;31.65;14.35;;;;;;;8.29;50.08;100160.63;687784;28;1444;-79
2022/03/30 00:00:32;;;;;;;33.15;14.60;;;;;;;8.23;50.00;100154.41;689867;28;1366;-79
2022/03/30 00:00:52;;;;;;;30.30;14.00;;;;;;;8.27;50.27;100172.66;685055;28;1368;-79
2022/03/30 00:01:13;;;;;;;30.57;14.33;;;;;;;8.21;50.49;100166.47;687979;28;1241;-79
2022/03/30 00:01:33;;;;;;;27.75;14.02;;;;;;;8.20;50.31;100162.13;687758;28;1222;-79
2022/03/30 00:01:55;;;;;;;28.10;14.57;;;;;;;8.23;50.23;100171.69;687875;28;1100;-79
2022/03/30 00:02:16;;;;;;;24.85;14.35;;;;;;;8.20;50.58;100166.44;687886;28;1364;-79
2022/03/30 00:02:36;;;;;;;26.13;14.48;;;;;;;8.27;50.35;100162.25;685409;28;1005;-79
2022/03/30 00:02:57;;;;;;;29.35;14.70;;;;;;;8.30;50.67;100170.16;690519;28;1977;-78
2022/03/30 00:03:17;;;;;;;30.63;14.23;;;;;;;8.21;50.13;100158.69;690746;28;957;-78
2022/03/30 00:03:38;;;;;;;28.77;14.15;;;;;;;8.20;50.35;100158.63;687676;28;1036;-79
2022/03/30 00:03:59;;;;;;;25.33;13.30;;;;;;;8.19;50.58;100162.97;687820;28;1283;-78
2022/03/30 00:04:19;;;;;;;26.67;12.95;;;;;;;8.20;50.52;100156.03;685490;28;952;-79
2022/03/30 00:04:40;;;;;;;29.30;13.40;;;;;;;8.15;50.27;100161.09;685677;28;975;-78
2022/03/30 00:05:00;;;;;;;26.80;13.80;;;;;;;8.11;50.85;100155.78;685290;28;1406;-79
2022/03/30 00:05:21;;;;;;;25.67;14.43;;;;;;;8.13;50.72;100157.59;688205;28;962;-79
2022/03/30 00:05:41;;;;;;;23.90;14.38;;;;;;;8.07;50.59;100157.41;693276;28;1080;-79
2022/03/30 00:06:05;;;;;;;25.15;13.93;;;;;;;8.22;50.56;100168.22;693365;28;1156;-80
2022/03/30 00:06:26;;;;;;;27.17;14.52;;;;;;;8.16;50.41;100149.88;693348;28;1233;-78
2022/03/30 00:06:46;;;;;;;27.58;14.50;;;;;;;8.13;50.42;100147.19;693510;28;669;-79
2022/03/30 00:07:07;;;;;;;27.03;14.73;;;;;;;8.16;50.46;100157.66;689570;28;1548;-79
2022/03/30 00:07:31;;;;;;;25.95;14.07;;;;;;;8.19;50.55;100154.28;690064;28;1179;-79
2022/03/30 00:07:55;;;;;;;28.13;14.15;;;;;;;8.18;50.46;100150.78;689670;28;1933;-79
2022/03/30 00:08:16;;;;;;;27.40;13.85;;;;;;;8.27;50.64;100173.56;690713;28;1127;-79
2022/03/30 00:08:36;;;;;;;29.53;13.70;;;;;;;8.17;50.71;100143.81;690533;28;976;-79
2022/03/30 00:08:57;;;;;;;27.85;13.75;;;;;;;8.22;50.22;100152.63;693208;28;1499;-78
2022/03/30 00:09:17;;;;;;;30.00;13.63;;;;;;;8.32;50.51;100163.28;693305;28;1000;-79
2022/03/30 00:09:38;;;;;;;27.97;13.80;;;;;;;8.26;50.46;100157.91;692660;28;1110;-79
2022/03/30 00:10:00;;;;;;;28.23;13.95;;;;;;;8.22;50.66;100147.44;687775;28;1088;-79
2022/03/30 00:10:20;;;;;;;25.17;14.05;;;;;;;8.23;50.57;100149.19;690642;28;1345;-79
2022/03/30 00:10:41;;;;;;;28.70;14.30;;;;;;;8.22;50.24;100151.75;691799;28;1174;-79
2022/03/30 00:11:02;;;;;;;27.70;14.37;;;;;;;8.21;50.03;100140.47;691186;28;1158;-79
2022/03/30 00:11:22;;;;;;;29.17;14.77;;;;;;;8.30;50.46;100159.78;691228;28;768;-79
2022/03/30 00:11:43;;;;;;;25.30;14.10;;;;;;;8.26;50.37;100147.50;691046;28;1713;-79
2022/03/30 00:12:04;;;;;;;29.95;14.38;;;;;;;7.97;50.70;100142.41;689789;28;1329;-79
2022/03/30 00:12:25;;;;;;;32.47;14.40;;;;;;;8.02;50.88;100140.78;688127;28;1127;-78
2022/03/30 00:12:47;;;;;;;33.35;14.23;;;;;;;8.09;51.05;100156.63;687981;28;1311;-79
2022/03/30 00:13:08;;;;;;;29.23;14.20;;;;;;;8.11;50.92;100140.19;682680;28;1099;-78
2022/03/30 00:13:29;;;;;;;28.20;13.98;;;;;;;8.19;50.55;100152.56;685048;28;1414;-79
2022/03/30 00:13:49;;;;;;;27.13;14.38;;;;;;;8.14;50.78;100153.25;685434;28;1172;-79
2022/03/30 00:14:10;;;;;;;25.27;14.05;;;;;;;8.03;50.58;100145.16;687934;28;1152;-78
2022/03/30 00:14:31;;;;;;;22.90;13.57;;;;;;;7.95;51.08;100148.44;690580;28;1033;-78
2022/03/30 00:14:52;;;;;;;23.80;13.63;;;;;;;7.96;51.20;100144.09;687721;28;1781;-79
2022/03/30 00:15:13;;;;;;;24.58;14.15;;;;;;;8.04;50.88;100152.13;688030;28;1064;-79
2022/03/30 00:15:34;;;;;;;24.17;14.43;;;;;;;8.09;50.71;100161.81;685055;28;1190;-78
2022/03/30 00:15:55;;;;;;;28.05;14.52;;;;;;;8.05;51.27;100143.50;685698;28;1264;-79
2022/03/30 00:16:15;;;;;;;27.73;13.90;;;;;;;8.07;50.97;100153.09;688313;28;1033;-79
2022/03/30 00:16:36;;;;;;;28.10;14.10;;;;;;;8.00;51.05;100140.78;688399;28;993;-78
2022/03/30 00:16:56;;;;;;;24.10;13.33;;;;;;;8.04;50.93;100153.00;690497;28;1154;-79
2022/03/30 00:17:18;;;;;;;24.23;13.68;;;;;;;7.97;51.45;100147.59;692378;28;1302;-79
2022/03/30 00:17:38;;;;;;;27.05;14.20;;;;;;;7.98;50.86;100147.63;687905;28;977;-79
2022/03/30 00:17:59;;;;;;;29.07;14.87;;;;;;;7.99;51.04;100151.13;694222;28;1365;-79
2022/03/30 00:18:19;;;;;;;30.93;14.60;;;;;;;8.02;50.88;100153.78;694722;28;1677;-79
2022/03/30 00:18:40;;;;;;;30.95;14.10;;;;;;;8.04;51.39;100160.78;693203;28;1091;-79
2022/03/30 00:19:02;;;;;;;28.93;13.80;;;;;;;8.07;51.14;100160.91;695110;28;1140;-80
2022/03/30 00:19:22;;;;;;;28.50;13.75;;;;;;;8.04;51.09;100152.13;693374;28;939;-79
2022/03/30 00:19:44;;;;;;;29.10;13.68;;;;;;;8.06;50.56;100150.44;690162;28;1230;-79
2022/03/30 00:20:05;;;;;;;30.02;13.75;;;;;;;8.14;51.07;100158.44;688001;28;1201;-79
2022/03/30 00:20:26;;;;;;;27.70;14.30;;;;;;;8.11;51.05;100159.22;688149;28;1201;-79
2022/03/30 00:20:47;;;;;;;25.33;14.38;;;;;;;8.09;51.42;100151.41;693158;28;1107;-79
2022/03/30 00:21:08;;;;;;;25.60;14.45;;;;;;;8.09;50.92;100154.03;682528;28;1176;-78
2022/03/30 00:21:29;;;;;;;24.90;13.95;;;;;;;8.16;50.84;100160.25;689167;28;1783;-79
2022/03/30 00:21:49;;;;;;;24.60;13.95;;;;;;;8.05;51.55;100151.28;691145;28;1193;-78
2022/03/30 00:22:10;;;;;;;24.15;13.80;;;;;;;8.09;51.16;100155.72;691076;28;962;-79
2022/03/30 00:22:31;;;;;;;24.07;13.60;;;;;;;8.05;50.88;100143.50;690768;28;787;-79
2022/03/30 00:23:10;;;;;;;23.83;13.30;;;;;;;8.15;51.19;100145.50;693401;28;701;-79
2022/03/30 00:23:39;;;;;;;26.65;13.43;;;;;;;8.17;50.64;100150.75;693308;28;1149;-79
2022/03/30 00:23:59;;;;;;;28.73;13.80;;;;;;;8.21;50.93;100156.06;692306;28;1162;-79
2022/03/30 00:24:20;;;;;;;29.90;14.20;;;;;;;8.13;50.54;100142.00;694157;28;1626;-78
2022/03/30 00:24:43;;;;;;;29.50;14.30;;;;;;;8.15;50.74;100145.50;694939;28;1013;-79
2022/03/30 00:25:10;;;;;;;29.35;14.25;;;;;;;8.10;50.68;100141.88;693222;28;1169;-80
2022/03/30 00:25:31;;;;;;;26.15;13.73;;;;;;;8.12;51.33;100135.03;693142;28;909;-79
2022/03/30 00:25:52;;;;;;;27.17;14.23;;;;;;;8.11;50.78;100138.44;689614;28;1696;-79
2022/03/30 00:26:13;;;;;;;27.33;14.52;;;;;;;8.14;50.64;100148.94;689601;28;1110;-79
2022/03/30 00:26:34;;;;;;;29.33;14.70;;;;;;;8.19;50.65;100152.56;687825;28;1106;-78
2022/03/30 00:26:54;;;;;;;29.33;13.95;;;;;;;8.19;50.89;100156.88;690462;28;1092;-79
2022/03/30 00:27:15;;;;;;;29.83;14.20;;;;;;;8.17;51.12;100151.63;687802;28;1065;-79
2022/03/30 00:27:36;;;;;;;28.98;13.93;;;;;;;8.16;50.72;100146.41;690536;28;1762;-79
2022/03/30 00:27:56;;;;;;;27.52;14.20;;;;;;;8.06;50.95;100145.25;691836;28;1146;-79
2022/03/30 00:28:17;;;;;;;26.05;14.20;;;;;;;8.04;50.58;100136.53;685401;28;1004;-79
2022/03/30 00:28:38;;;;;;;28.10;14.80;;;;;;;8.08;51.14;100144.47;690365;28;1282;-79
2022/03/30 00:28:58;;;;;;;29.43;15.10;;;;;;;8.08;51.00;100148.78;689355;28;1452;-79
2022/03/30 00:29:19;;;;;;;30.95;15.38;;;;;;;7.98;51.49;100136.38;685133;28;1342;-79
2022/03/30 00:29:40;;;;;;;29.87;15.30;;;;;;;8.01;51.10;100146.84;687398;28;1053;-79
2022/03/30 00:30:01;;;;;;;30.87;15.43;;;;;;;8.04;51.32;100146.94;691958;28;1088;-79
2022/03/30 00:30:22;;;;;;;31.52;16.13;;;;;;;8.03;50.92;100145.16;692646;28;1883;-78
2022/03/30 00:30:43;;;;;;;32.08;16.58;;;;;;;8.02;51.05;100146.00;687691;28;1065;-79
2022/03/30 00:31:03;;;;;;;31.42;16.73;;;;;;;7.97;51.18;100142.41;685819;28;1433;-79
2022/03/30 00:31:24;;;;;;;31.93;16.90;;;;;;;7.97;51.01;100145.00;685149;28;989;-79
2022/03/30 00:31:45;;;;;;;32.45;17.48;;;;;;;7.94;51.41;100144.06;685194;28;1229;-79
2022/03/30 00:32:06;;;;;;;30.23;17.70;;;;;;;7.93;51.53;100147.50;687247;28;1327;-79
2022/03/30 00:32:27;;;;;;;31.10;18.67;;;;;;;7.90;51.47;100139.63;685160;28;1190;-79
2022/03/30 00:32:48;;;;;;;31.95;19.83;;;;;;;7.94;51.18;100141.44;690528;28;1162;-79
2022/03/30 00:33:09;;;;;;;36.00;19.45;;;;;;;8.02;51.25;100153.78;687837;28;1861;-78
2022/03/30 00:33:29;;;;;;;37.20;18.92;;;;;;;7.91;50.83;100137.88;690588;28;1004;-79
2022/03/30 00:33:51;;;;;;;33.58;16.50;;;;;;;7.98;51.45;100147.63;688195;28;1536;-79
2022/03/30 00:34:11;;;;;;;32.95;15.82;;;;;;;7.93;51.50;100144.88;690741;28;956;-79
2022/03/30 00:34:32;;;;;;;30.70;14.57;;;;;;;7.92;51.31;100137.94;692810;28;1056;-79
2022/03/30 00:34:52;;;;;;;29.80;13.93;;;;;;;7.95;51.26;100142.34;690639;28;1174;-79
2022/03/30 00:35:14;;;;;;;27.97;13.50;;;;;;;7.91;51.10;100141.38;688150;28;1129;-79
2022/03/30 00:35:35;;;;;;;24.65;13.13;;;;;;;7.94;52.03;100144.06;688529;28;1081;-79
2022/03/30 00:35:55;;;;;;;23.10;13.70;;;;;;;7.92;51.66;100137.06;689084;28;1884;-79
2022/03/30 00:36:16;;;;;;;23.00;14.03;;;;;;;7.98;51.30;100146.75;690631;28;1303;-79
2022/03/30 00:36:37;;;;;;;24.48;14.10;;;;;;;7.93;51.50;100147.50;687925;28;1100;-79
2022/03/30 00:36:58;;;;;;;26.67;14.35;;;;;;;7.91;51.28;100136.19;687863;28;1178;-79
2022/03/30 00:37:18;;;;;;;25.30;14.48;;;;;;;7.88;51.70;100130.91;687925;28;1145;-79
2022/03/30 00:37:39;;;;;;;27.17;14.70;;;;;;;7.91;51.37;100136.19;690585;28;979;-79
2022/03/30 00:38:00;;;;;;;26.30;14.38;;;;;;;7.91;51.28;100133.59;688006;28;1214;-78
2022/03/30 00:38:20;;;;;;;29.63;14.43;;;;;;;7.95;51.50;100145.84;690201;28;1728;-79
2022/03/30 00:38:41;;;;;;;30.05;14.75;;;;;;;7.94;51.32;100138.84;690566;28;1189;-79
2022/03/30 00:39:02;;;;;;;31.40;14.73;;;;;;;7.90;51.89;100137.03;689797;28;1178;-79
2022/03/30 00:39:23;;;;;;;33.97;15.85;;;;;;;7.84;51.21;100125.59;690583;28;860;-79
2022/03/30 00:39:43;;;;;;;33.97;16.20;;;;;;;7.82;51.66;100130.72;684665;28;1283;-79
2022/03/30 00:40:06;;;;;;;36.20;16.83;;;;;;;7.94;51.85;100148.38;682395;28;1242;-78
2022/03/30 00:40:27;;;;;;;31.88;16.20;;;;;;;7.84;51.59;100139.44;685209;28;1112;-79
2022/03/30 00:40:48;;;;;;;26.77;15.35;;;;;;;7.85;51.18;100129.94;685025;28;1167;-79
2022/03/30 00:41:09;;;;;;;25.00;14.95;;;;;;;7.81;51.58;100139.34;679815;29;1014;-79
2022/03/30 00:41:30;;;;;;;24.58;14.40;;;;;;;7.85;51.58;100146.38;683780;28;1192;-79
2022/03/30 00:41:51;;;;;;;25.55;13.90;;;;;;;7.77;51.75;100135.78;687802;28;1241;-78
2022/03/30 00:42:16;;;;;;;28.77;14.13;;;;;;;7.76;51.52;100130.53;688022;28;1053;-78
2022/03/30 00:42:40;;;;;;;28.73;14.60;;;;;;;7.83;51.85;100148.06;685155;28;911;-79
2022/03/30 00:43:01;;;;;;;28.40;14.77;;;;;;;7.82;51.69;100141.97;684973;28;1958;-79
2022/03/30 00:43:22;;;;;;;26.37;13.60;;;;;;;7.79;51.65;100141.00;687175;28;1067;-79
2022/03/30 00:43:42;;;;;;;28.88;13.60;;;;;;;7.86;51.72;100148.16;687842;28;1092;-78
2022/03/30 00:44:10;;;;;;;31.00;13.85;;;;;;;7.77;51.89;100135.78;687357;28;1626;-79
2022/03/30 00:44:31;;;;;;;29.23;14.27;;;;;;;7.79;51.58;100134.13;682308;29;1486;-79
2022/03/30 00:44:52;;;;;;;27.43;14.40;;;;;;;7.80;51.72;100142.81;682424;29;1071;-79
2022/03/30 00:45:18;;;;;;;30.75;15.48;;;;;;;7.83;51.60;100137.69;687784;28;1154;-80
2022/03/30 00:45:39;;;;;;;30.85;16.05;;;;;;;7.79;51.74;100135.81;690548;28;1946;-80
2022/03/30 00:45:59;;;;;;;28.90;15.63;;;;;;;7.80;51.92;100140.19;688737;28;1103;-79
2022/03/30 00:46:20;;;;;;;29.80;15.55;;;;;;;7.87;51.70;100155.09;690238;28;1173;-79
2022/03/30 00:46:44;;;;;;;32.35;16.17;;;;;;;7.90;51.52;100155.22;690497;28;1087;-78
2022/03/30 00:47:13;;;;;;;32.75;16.45;;;;;;;7.85;51.60;100141.19;684440;28;1588;-79
2022/03/30 00:47:33;;;;;;;30.85;16.70;;;;;;;7.79;51.82;100130.63;687909;28;977;-79
2022/03/30 00:47:54;;;;;;;27.90;15.63;;;;;;;7.82;51.67;100141.13;691444;28;1119;-79
2022/03/30 00:48:14;;;;;;;28.57;15.37;;;;;;;7.81;51.98;100136.75;690458;28;1059;-79
2022/03/30 00:48:36;;;;;;;27.05;14.85;;;;;;;7.79;52.09;100131.50;690583;28;1021;-79
2022/03/30 00:48:56;;;;;;;30.23;15.38;;;;;;;7.80;52.10;100133.28;691625;28;1194;-79
2022/03/30 00:49:17;;;;;;;33.00;15.73;;;;;;;7.82;52.08;100135.91;687885;28;1228;-79
2022/03/30 00:49:51;;;;;;;33.92;15.50;;;;;;;7.90;51.83;100147.41;686782;28;1196;-79
2022/03/30 00:50:15;;;;;;;32.83;14.45;;;;;;;7.94;52.26;100148.38;687800;28;1052;-79
2022/03/30 00:50:36;;;;;;;27.58;13.88;;;;;;;7.85;51.95;100151.59;690595;28;1966;-79
2022/03/30 00:50:57;;;;;;;26.73;13.88;;;;;;;7.86;52.05;100135.16;690005;28;1433;-78
2022/03/30 00:51:17;;;;;;;26.60;14.15;;;;;;;7.81;51.57;100129.84;692417;28;1045;-79
2022/03/30 00:51:38;;;;;;;26.83;14.67;;;;;;;7.87;51.96;100136.06;690592;28;1196;-79
2022/03/30 00:51:59;;;;;;;26.35;15.10;;;;;;;7.89;51.97;100136.97;690329;28;1258;-78
2022/03/30 00:52:20;;;;;;;28.40;14.88;;;;;;;7.85;51.98;100136.00;688091;28;1166;-79
2022/03/30 00:52:42;;;;;;;28.15;14.63;;;;;;;7.92;52.03;100139.69;690591;28;1072;-79
2022/03/30 00:53:03;;;;;;;29.90;14.50;;;;;;;7.85;51.64;100125.59;682341;28;1237;-79
2022/03/30 00:53:23;;;;;;;28.58;14.60;;;;;;;7.95;52.03;100138.03;685194;28;1255;-79
2022/03/30 00:53:44;;;;;;;30.70;14.60;;;;;;;7.90;51.99;100125.72;687792;28;1749;-80
2022/03/30 00:54:05;;;;;;;33.00;14.67;;;;;;;7.96;51.68;100131.13;687735;28;1298;-79
2022/03/30 00:54:25;;;;;;;30.83;14.23;;;;;;;8.00;51.57;100139.88;692505;28;1547;-79
2022/03/30 00:54:49;;;;;;;28.73;13.95;;;;;;;7.96;51.60;100128.50;693680;28;728;-79
2022/03/30 00:55:10;;;;;;;26.17;13.80;;;;;;;8.04;51.53;100136.53;690492;28;1280;-79
2022/03/30 00:55:31;;;;;;;27.45;14.20;;;;;;;8.00;51.95;100130.38;690500;28;1257;-80
2022/03/30 00:55:53;;;;;;;26.75;14.50;;;;;;;8.02;51.60;100135.59;687607;28;1266;-79
2022/03/30 00:56:13;;;;;;;27.20;14.15;;;;;;;8.01;51.67;100132.13;685300;28;1070;-78
2022/03/30 00:56:36;;;;;;;28.17;14.33;;;;;;;8.00;51.66;100119.09;685209;28;930;-79
2022/03/30 00:56:57;;;;;;;29.40;14.00;;;;;;;8.02;52.16;100125.19;685210;28;1603;-79
2022/03/30 00:57:21;;;;;;;27.70;14.20;;;;;;;8.09;51.63;100145.31;690500;28;1238;-79
2022/03/30 00:57:42;;;;;;;25.42;13.75;;;;;;;8.01;51.33;100118.25;688966;28;1018;-79
2022/03/30 00:58:03;;;;;;;26.50;13.87;;;;;;;8.08;51.70;100133.19;691493;28;1449;-79
2022/03/30 00:58:26;;;;;;;27.10;14.30;;;;;;;8.06;51.65;100125.31;693292;28;1408;-79
2022/03/30 00:58:46;;;;;;;26.92;13.93;;;;;;;8.04;51.45;100127.00;690536;28;925;-79
2022/03/30 00:59:07;;;;;;;26.67;13.65;;;;;;;8.13;51.54;100142.00;687694;28;1800;-79
2022/03/30 00:59:28;;;;;;;25.40;13.00;;;;;;;8.13;51.54;100134.19;685022;28;1099;-78
2022/03/30 00:59:48;;;;;;;23.70;13.10;;;;;;;8.09;51.37;100134.94;684487;28;1043;-78
2022/03/30 01:00:12;;;;;;;26.25;14.18;;;;;;;8.12;51.49;100129.84;685996;28;1041;-79
2022/03/30 01:00:33;;;;;;;28.92;14.43;;;;;;;8.11;51.59;100128.06;685041;28;990;-79
2022/03/30 01:00:54;;;;;;;28.87;13.97;;;;;;;8.19;51.46;100147.38;684960;28;1513;-79
2022/03/30 01:01:15;;;;;;;30.73;14.40;;;;;;;8.10;51.82;100128.88;687862;28;941;-79
2022/03/30 01:01:35;;;;;;;28.55;13.65;;;;;;;8.13;51.95;100130.69;689912;28;1300;-79
2022/03/30 01:01:56;;;;;;;26.87;14.27;;;;;;;8.14;51.97;100128.16;688921;28;1222;-79
2022/03/30 01:02:18;;;;;;;25.63;13.80;;;;;;;8.16;51.35;100136.88;688168;28;1715;-79
2022/03/30 01:02:39;;;;;;;25.35;14.57;;;;;;;8.14;51.30;100116.88;690552;28;1104;-79
2022/03/30 01:03:00;;;;;;;29.35;14.32;;;;;;;8.17;51.30;100127.38;690481;28;1997;-79
2022/03/30 01:03:21;;;;;;;28.67;14.00;;;;;;;8.19;51.14;100129.16;689909;28;1220;-79
2022/03/30 01:03:41;;;;;;;26.93;13.60;;;;;;;8.13;51.09;100120.31;687760;28;961;-79
2022/03/30 01:04:03;;;;;;;27.17;13.82;;;;;;;8.16;51.10;100118.66;689535;28;1475;-79
2022/03/30 01:04:26;;;;;;;29.38;14.32;;;;;;;8.20;50.94;100130.94;692803;28;1404;-79
2022/03/30 01:04:47;;;;;;;29.40;14.02;;;;;;;8.21;51.22;100130.09;690293;28;1942;-79
2022/03/30 01:05:08;;;;;;;25.05;13.32;;;;;;;8.18;51.13;100127.38;687456;28;1500;-79
2022/03/30 01:05:28;;;;;;;22.13;12.70;;;;;;;8.21;51.40;100134.38;684949;28;1075;-79
2022/03/30 01:05:49;;;;;;;21.83;12.20;;;;;;;8.17;51.72;100122.16;690196;28;1202;-79
2022/03/30 01:06:09;;;;;;;21.88;12.77;;;;;;;8.21;51.20;100118.78;687790;28;1356;-79
2022/03/30 01:06:30;;;;;;;26.13;13.67;;;;;;;8.28;51.39;100130.25;687856;28;985;-79
2022/03/30 01:06:51;;;;;;;26.63;14.07;;;;;;;8.22;51.20;100125.75;685655;28;1142;-78
2022/03/30 01:07:13;;;;;;;27.38;14.32;;;;;;;8.23;51.04;100124.91;687714;28;1311;-79
2022/03/30 01:07:33;;;;;;;24.35;13.65;;;;;;;8.23;51.28;100125.81;690475;28;1046;-79
2022/03/30 01:08:00;;;;;;;21.97;13.53;;;;;;;8.25;51.38;100122.34;690143;28;1544;-79
2022/03/30 01:08:20;;;;;;;24.77;13.40;;;;;;;8.22;50.89;100113.66;687751;28;2056;-78
2022/03/30 01:08:41;;;;;;;26.87;13.70;;;;;;;8.33;50.64;100133.84;690468;28;1145;-79
2022/03/30 01:09:02;;;;;;;26.80;13.70;;;;;;;8.21;50.94;100111.91;688319;28;1212;-79
2022/03/30 01:09:23;;;;;;;27.80;14.50;;;;;;;8.26;50.78;100121.53;686767;28;1516;-78
2022/03/30 01:09:44;;;;;;;28.23;14.82;;;;;;;8.23;50.79;100120.59;687478;28;886;-79
2022/03/30 01:10:06;;;;;;;30.80;14.90;;;;;;;8.24;51.08;100124.09;690040;28;1325;-79
2022/03/30 01:10:27;;;;;;;29.08;14.70;;;;;;;8.21;50.92;100119.69;691815;28;983;-79
2022/03/30 01:10:48;;;;;;;26.37;13.90;;;;;;;8.25;50.88;100117.16;690407;28;1083;-79
2022/03/30 01:11:12;;;;;;;24.85;13.60;;;;;;;8.24;51.26;100124.09;687912;28;1143;-78
2022/03/30 01:11:33;;;;;;;23.67;13.00;;;;;;;8.25;51.00;100124.97;690421;28;1314;-79
2022/03/30 01:11:54;;;;;;;26.83;13.02;;;;;;;8.28;51.15;100125.06;687157;28;1541;-79
2022/03/30 01:12:15;;;;;;;29.55;13.25;;;;;;;8.22;51.26;100111.03;687656;28;1225;-79
2022/03/30 01:12:39;;;;;;;29.92;13.93;;;;;;;8.27;51.04;100123.28;689666;28;1184;-80
2022/03/30 01:13:02;;;;;;;30.55;14.40;;;;;;;8.27;51.20;100118.06;693156;28;1059;-79
2022/03/30 01:13:22;;;;;;;26.23;13.38;;;;;;;8.25;51.05;100120.66;694145;28;1289;-79
2022/03/30 01:13:43;;;;;;;25.60;13.33;;;;;;;8.31;51.17;100130.34;690444;28;1176;-79
2022/03/30 01:14:04;;;;;;;26.75;13.52;;;;;;;8.30;50.91;100120.78;691469;28;1518;-79
2022/03/30 01:14:26;;;;;;;30.13;14.18;;;;;;;8.33;51.02;100120.84;687766;28;1355;-79
2022/03/30 01:14:46;;;;;;;29.33;13.77;;;;;;;8.29;51.12;100119.03;690270;28;1847;-79
2022/03/30 01:15:10;;;;;;;25.70;13.85;;;;;;;8.33;50.93;100119.13;690412;28;1736;-79
2022/03/30 01:15:31;;;;;;;24.52;14.10;;;;;;;8.31;50.94;100119.94;685268;28;1820;-79
2022/03/30 01:15:52;;;;;;;25.33;13.52;;;;;;;8.32;51.28;100126.88;685041;28;1234;-79
2022/03/30 01:16:13;;;;;;;27.05;13.25;;;;;;;8.29;50.89;100112.09;685126;28;1017;-79
2022/03/30 01:16:33;;;;;;;26.80;13.40;;;;;;;8.28;51.43;100117.25;685169;28;1126;-78
2022/03/30 01:16:54;;;;;;;26.70;13.77;;;;;;;8.26;51.04;100105.91;687651;28;1201;-79
2022/03/30 01:17:14;;;;;;;24.47;13.40;;;;;;;8.32;50.96;100119.09;693002;28;1742;-79
2022/03/30 01:17:37;;;;;;;25.10;13.00;;;;;;;8.34;50.46;100115.69;690582;28;1092;-79
2022/03/30 01:17:57;;;;;;;24.77;13.07;;;;;;;8.28;51.21;100110.31;688977;28;1436;-79
2022/03/30 01:18:18;;;;;;;25.43;12.90;;;;;;;8.27;50.45;100102.47;687758;28;1283;-79
2022/03/30 01:18:41;;;;;;;26.08;12.80;;;;;;;8.30;50.86;100113.84;690268;28;1141;-78
2022/03/30 01:19:04;;;;;;;25.67;12.50;;;;;;;8.30;51.05;100103.44;689128;28;1632;-79
2022/03/30 01:19:29;;;;;;;26.42;13.23;;;;;;;8.27;51.04;100097.28;684779;28;990;-79
2022/03/30 01:19:50;;;;;;;26.30;13.32;;;;;;;8.23;50.86;100091.13;689979;28;1761;-78
2022/03/30 01:20:12;;;;;;;24.90;13.20;;;;;;;8.27;50.83;100100.78;687779;28;1849;-79
2022/03/30 01:20:33;;;;;;;27.48;13.65;;;;;;;8.28;50.65;100097.31;687605;28;1367;-79
2022/03/30 01:20:53;;;;;;;26.20;14.17;;;;;;;8.28;50.84;100110.31;685048;28;1262;-79
2022/03/30 01:21:16;;;;;;;27.05;14.00;;;;;;;8.25;51.38;100098.97;684809;28;1102;-79
2022/03/30 01:21:39;;;;;;;26.83;13.93;;;;;;;8.25;51.12;100104.16;685144;28;1426;-79
2022/03/30 01:22:00;;;;;;;29.65;13.57;;;;;;;8.25;51.13;100101.56;684995;28;1178;-79
2022/03/30 01:22:20;;;;;;;28.77;12.95;;;;;;;8.26;50.93;100105.91;685150;28;1217;-80
2022/03/30 01:22:41;;;;;;;27.23;12.90;;;;;;;8.22;51.15;100100.66;687299;28;1135;-79
2022/03/30 01:23:02;;;;;;;25.35;12.85;;;;;;;8.20;50.70;100102.34;687611;28;1973;-79
2022/03/30 01:23:23;;;;;;;24.02;13.10;;;;;;;8.20;51.13;100097.13;693308;28;843;-79
2022/03/30 01:23:43;;;;;;;25.92;13.48;;;;;;;8.23;50.93;100099.81;695818;28;815;-79
2022/03/30 01:24:05;;;;;;;25.20;13.52;;;;;;;8.30;51.22;100119.03;692723;28;1032;-79
2022/03/30 01:24:27;;;;;;;27.95;13.85;;;;;;;8.30;51.19;100113.84;690458;28;1037;-79
2022/03/30 01:24:47;;;;;;;25.88;13.55;;;;;;;8.21;51.39;100098.00;684930;28;1239;-79
2022/03/30 01:25:09;;;;;;;25.13;12.95;;;;;;;8.23;50.76;100101.50;687654;28;1686;-79
2022/03/30 01:25:29;;;;;;;23.73;13.05;;;;;;;8.21;50.98;100098.00;686961;28;1209;-78
2022/03/30 01:25:50;;;;;;;25.52;13.32;;;;;;;8.20;50.90;100104.94;688283;28;1171;-79
2022/03/30 01:26:10;;;;;;;23.73;13.25;;;;;;;8.18;50.99;100096.19;688322;28;949;-80
2022/03/30 01:26:32;;;;;;;26.50;13.20;;;;;;;8.18;50.90;100104.00;693156;28;1252;-79
2022/03/30 01:26:53;;;;;;;26.00;12.98;;;;;;;8.15;51.08;100082.22;692084;28;1428;-79
2022/03/30 01:27:13;;;;;;;27.42;13.13;;;;;;;8.17;50.71;100098.78;687837;28;1061;-79
2022/03/30 01:27:34;;;;;;;23.37;13.00;;;;;;;8.18;50.84;100104.00;687832;28;986;-79
2022/03/30 01:27:55;;;;;;;23.98;12.88;;;;;;;8.19;51.35;100099.69;687604;28;1331;-79
2022/03/30 01:28:15;;;;;;;25.15;12.98;;;;;;;8.17;50.80;100096.19;682406;29;1187;-79
2022/03/30 01:28:36;;;;;;;25.40;12.73;;;;;;;8.15;51.12;100103.91;689596;28;1097;-79
2022/03/30 01:28:56;;;;;;;24.40;12.60;;;;;;;8.15;50.96;100098.72;690339;28;1104;-79
2022/03/30 01:32:36;;;;;;;24.77;12.10;;;;;;;8.11;51.35;100096.88;695961;28;1062;-79
2022/03/30 01:32:58;;;;;;;25.35;12.20;;;;;;;8.07;51.25;100100.22;694454;28;1090;-79
2022/03/30 01:33:20;;;;;;;25.23;12.45;;;;;;;8.06;51.51;100088.94;695522;28;970;-79
2022/03/30 01:33:45;;;;;;;24.35;12.38;;;;;;;8.09;51.51;100090.75;687607;28;1252;-79
2022/03/30 01:34:06;;;;;;;24.02;13.02;;;;;;;8.11;51.50;100093.41;689709;28;1992;-79
2022/03/30 01:34:26;;;;;;;25.23;12.57;;;;;;;8.05;51.43;100083.72;690390;28;1304;-78
2022/03/30 01:34:47;;;;;;;25.70;12.75;;;;;;;8.10;50.98;100092.50;693182;28;1747;-78
2022/03/30 01:35:10;;;;;;;26.37;12.57;;;;;;;8.05;50.76;100089.78;693144;28;1177;-78
2022/03/30 01:35:31;;;;;;;25.20;12.80;;;;;;;8.04;51.16;100089.78;695844;28;1074;-79
2022/03/30 01:35:52;;;;;;;22.98;12.75;;;;;;;8.08;51.15;100094.19;695155;28;1157;-79
2022/03/30 01:36:16;;;;;;;23.93;12.90;;;;;;;8.10;51.36;100084.72;695920;28;1058;-79
2022/03/30 01:36:36;;;;;;;24.35;13.02;;;;;;;8.13;51.49;100102.13;696997;28;1134;-79
2022/03/30 01:36:57;;;;;;;27.65;12.80;;;;;;;8.12;51.33;100101.25;694488;28;1007;-78
2022/03/30 01:37:17;;;;;;;23.90;12.60;;;;;;;8.14;51.26;100096.97;691211;28;1119;-78
2022/03/30 01:37:38;;;;;;;25.93;12.83;;;;;;;8.04;51.14;100088.03;692917;28;1404;-79
2022/03/30 01:38:00;;;;;;;22.45;12.80;;;;;;;8.10;51.32;100087.31;689672;28;1138;-79
2022/03/30 01:38:20;;;;;;;24.65;12.93;;;;;;;8.14;51.35;100094.38;690229;28;1196;-79
2022/03/30 01:38:43;;;;;;;25.70;13.37;;;;;;;8.11;51.43;100085.59;687385;28;1309;-79
2022/03/30 01:39:04;;;;;;;27.77;13.05;;;;;;;8.08;51.49;100081.19;689959;28;1241;-79
2022/03/30 01:39:25;;;;;;;25.52;12.82;;;;;;;8.11;51.34;100086.47;689580;28;1296;-79
2022/03/30 01:39:45;;;;;;;22.85;12.40;;;;;;;8.07;51.32;100079.44;690091;28;808;-78
2022/03/30 01:40:07;;;;;;;21.85;12.82;;;;;;;8.09;51.57;100090.75;684253;28;1266;-79
2022/03/30 01:40:28;;;;;;;23.60;12.80;;;;;;;8.04;51.78;100076.78;685986;28;1227;-79
2022/03/30 01:40:48;;;;;;;25.20;12.90;;;;;;;8.07;51.10;100084.63;687606;28;1372;-79
2022/03/30 01:41:09;;;;;;;24.23;12.75;;;;;;;8.07;51.38;100084.63;690360;28;962;-79
2022/03/30 01:41:30;;;;;;;22.10;12.90;;;;;;;8.06;51.54;100082.88;690396;28;1280;-79
2022/03/30 01:41:50;;;;;;;24.90;13.37;;;;;;;8.05;51.09;100070.75;687661;28;1147;-78
2022/03/30 01:42:11;;;;;;;27.30;13.43;;;;;;;8.10;51.35;100095.09;684583;28;1017;-79
2022/03/30 01:42:32;;;;;;;29.70;13.38;;;;;;;8.07;51.57;100085.53;682403;29;1468;-79
2022/03/30 01:42:53;;;;;;;28.17;13.40;;;;;;;8.07;51.21;100087.25;683175;28;1906;-78
2022/03/30 01:43:14;;;;;;;27.40;13.38;;;;;;;8.08;51.27;100083.81;684992;28;1215;-79
2022/03/30 01:43:34;;;;;;;25.90;12.98;;;;;;;8.08;51.47;100086.41;687738;28;972;-79
2022/03/30 01:43:56;;;;;;;26.88;13.00;;;;;;;8.11;51.55;100088.22;684403;28;1584;-79